sensor_id;sensor_type;location;lat;lon;timestamp;pressure;altitude;pressure_sealevel;temperature;humidity
13765;BME280;6953;48.810;9.204;2022-08-11T00:01:35;99138.81;;;19.63;54.23
13765;BME280;6953;48.810;9.204;2022-08-11T00:04:04;99051.22;;;19.07;54.45
13765;BME280;6953;48.810;9.204;2022-08-11T00:06:36;99153.00;;;19.53;54.78
13765;BME280;6953;48.810;9.204;2022-08-11T00:09:05;99121.31;;;19.39;54.90
13765;BME280;6953;48.810;9.204;2022-08-11T00:11:52;99072.75;;;19.04;55.01
13765;BME280;6953;48.810;9.204;2022-08-11T00:14:27;99148.31;;;19.45;55.42
13765;BME280;6953;48.810;9.204;2022-08-11T00:16:56;99163.06;;;19.38;55.29
13765;BME280;6953;48.810;9.204;2022-08-11T00:19:27;99074.69;;;19.02;54.87
13765;BME280;6953;48.810;9.204;2022-08-11T00:21:54;99125.47;;;19.32;55.47
13765;BME280;6953;48.810;9.204;2022-08-11T00:24:21;99152.78;;;19.45;55.76
13765;BME280;6953;48.810;9.204;2022-08-11T00:26:51;99024.19;;;18.80;54.46
13765;BME280;6953;48.810;9.204;2022-08-11T00:29:18;99132.06;;;19.48;54.43
13765;BME280;6953;48.810;9.204;2022-08-11T00:31:49;99139.94;;;19.50;54.27
13765;BME280;6953;48.810;9.204;2022-08-11T00:34:19;99127.25;;;19.42;54.57
13765;BME280;6953;48.810;9.204;2022-08-11T00:36:52;99037.97;;;18.85;55.05
13765;BME280;6953;48.810;9.204;2022-08-11T00:39:21;99145.91;;;19.42;54.75
13765;BME280;6953;48.810;9.204;2022-08-11T00:42:24;99139.22;;;19.37;55.16
13765;BME280;6953;48.810;9.204;2022-08-11T00:47:52;99148.31;;;19.34;55.77
13765;BME280;6953;48.810;9.204;2022-08-11T00:50:34;99068.94;;;18.75;56.13
13765;BME280;6953;48.810;9.204;2022-08-11T01:01:33;99150.16;;;18.90;57.33
13765;BME280;6953;48.810;9.204;2022-08-11T01:04:54;99156.31;;;18.90;57.65
13765;BME280;6953;48.810;9.204;2022-08-11T01:19:04;99147.97;;;18.73;60.33
13765;BME280;6953;48.810;9.204;2022-08-11T01:24:46;99148.56;;;18.66;59.95
13765;BME280;6953;48.810;9.204;2022-08-11T01:36:38;99143.56;;;18.39;60.65
13765;BME280;6953;48.810;9.204;2022-08-11T01:42:22;99155.06;;;18.40;60.68
13765;BME280;6953;48.810;9.204;2022-08-11T01:55:57;99138.75;;;18.10;62.92
13765;BME280;6953;48.810;9.204;2022-08-11T02:03:56;99033.44;;;17.42;63.03
13765;BME280;6953;48.810;9.204;2022-08-11T02:06:40;99126.66;;;17.95;63.35
13765;BME280;6953;48.810;9.204;2022-08-11T02:12:44;99156.22;;;18.01;65.00
13765;BME280;6953;48.810;9.204;2022-08-11T02:15:17;99047.16;;;17.36;65.68
13765;BME280;6953;48.810;9.204;2022-08-11T02:20:40;99134.84;;;17.92;66.93
13765;BME280;6953;48.810;9.204;2022-08-11T02:23:45;99043.47;;;17.26;67.43
13765;BME280;6953;48.810;9.204;2022-08-11T02:26:18;99141.16;;;17.68;67.50
13765;BME280;6953;48.810;9.204;2022-08-11T02:31:39;99103.28;;;17.30;68.15
13765;BME280;6953;48.810;9.204;2022-08-11T02:47:53;99142.75;;;17.58;65.82
13765;BME280;6953;48.810;9.204;2022-08-11T02:50:51;99043.22;;;17.05;65.50
13765;BME280;6953;48.810;9.204;2022-08-11T02:56:15;99109.94;;;17.48;65.03
13765;BME280;6953;48.810;9.204;2022-08-11T02:59:02;99149.44;;;17.63;64.07
13765;BME280;6953;48.810;9.204;2022-08-11T03:02:09;99042.91;;;17.10;64.91
13765;BME280;6953;48.810;9.204;2022-08-11T03:10:25;99138.72;;;17.41;65.98
13765;BME280;6953;48.810;9.204;2022-08-11T03:22:08;99126.72;;;17.36;64.99
13765;BME280;6953;48.810;9.204;2022-08-11T03:24:51;99131.06;;;17.37;65.31
13765;BME280;6953;48.810;9.204;2022-08-11T03:27:29;99139.50;;;17.31;65.83
13765;BME280;6953;48.810;9.204;2022-08-11T03:30:15;99136.50;;;17.23;66.25
13765;BME280;6953;48.810;9.204;2022-08-11T03:38:44;99130.16;;;17.13;66.34
13765;BME280;6953;48.810;9.204;2022-08-11T03:41:22;99159.63;;;17.21;66.39
13765;BME280;6953;48.810;9.204;2022-08-11T03:44:55;99048.22;;;16.62;65.97
13765;BME280;6953;48.810;9.204;2022-08-11T03:50:03;99066.69;;;16.63;66.94
13765;BME280;6953;48.810;9.204;2022-08-11T03:55:18;99054.75;;;16.45;67.70
13765;BME280;6953;48.810;9.204;2022-08-11T04:00:55;99161.91;;;17.02;67.85
13765;BME280;6953;48.810;9.204;2022-08-11T04:03:41;99149.00;;;16.97;68.15
13765;BME280;6953;48.810;9.204;2022-08-11T04:09:47;99146.34;;;16.97;69.45
13765;BME280;6953;48.810;9.204;2022-08-11T04:24:57;99150.53;;;16.64;72.16
13765;BME280;6953;48.810;9.204;2022-08-11T04:35:34;99159.97;;;16.68;72.35
13765;BME280;6953;48.810;9.204;2022-08-11T04:38:27;99158.75;;;16.72;72.18
13765;BME280;6953;48.810;9.204;2022-08-11T04:44:19;99162.06;;;16.88;71.94
13765;BME280;6953;48.810;9.204;2022-08-11T04:47:05;99154.72;;;16.91;72.25
13765;BME280;6953;48.810;9.204;2022-08-11T04:49:51;99052.31;;;16.42;72.01
13765;BME280;6953;48.810;9.204;2022-08-11T04:52:58;99173.78;;;17.09;72.53
13765;BME280;6953;48.810;9.204;2022-08-11T04:56:16;99172.59;;;17.13;72.17
13765;BME280;6953;48.810;9.204;2022-08-11T05:05:40;99154.06;;;17.49;71.25
13765;BME280;6953;48.810;9.204;2022-08-11T05:16:58;99170.56;;;18.22;70.41
13765;BME280;6953;48.810;9.204;2022-08-11T05:19:47;99110.66;;;18.18;70.06
13765;BME280;6953;48.810;9.204;2022-08-11T05:22:32;99177.00;;;19.31;67.89
13765;BME280;6953;48.810;9.204;2022-08-11T05:25:25;99113.91;;;20.16;64.79
13765;BME280;6953;48.810;9.204;2022-08-11T05:28:32;99160.00;;;21.67;60.19
13765;BME280;6953;48.810;9.204;2022-08-11T05:31:19;99163.72;;;22.88;55.32
13765;BME280;6953;48.810;9.204;2022-08-11T05:34:10;99171.41;;;23.90;51.37
13765;BME280;6953;48.810;9.204;2022-08-11T05:37:30;99162.56;;;24.93;46.66
13765;BME280;6953;48.810;9.204;2022-08-11T05:40:06;99174.97;;;25.60;44.37
13765;BME280;6953;48.810;9.204;2022-08-11T05:42:56;99178.22;;;26.37;41.33
13765;BME280;6953;48.810;9.204;2022-08-11T05:45:42;99106.03;;;26.56;38.93
13765;BME280;6953;48.810;9.204;2022-08-11T05:48:32;99188.97;;;27.55;35.98
13765;BME280;6953;48.810;9.204;2022-08-11T05:51:17;99174.28;;;27.96;34.54
13765;BME280;6953;48.810;9.204;2022-08-11T05:54:03;99154.34;;;28.27;33.74
13765;BME280;6953;48.810;9.204;2022-08-11T05:56:55;99144.31;;;28.58;32.96
13765;BME280;6953;48.810;9.204;2022-08-11T05:59:24;99173.03;;;29.10;32.04
13765;BME280;6953;48.810;9.204;2022-08-11T06:01:50;99101.16;;;29.01;31.37
13765;BME280;6953;48.810;9.204;2022-08-11T06:04:22;99191.38;;;29.87;30.74
13765;BME280;6953;48.810;9.204;2022-08-11T06:06:56;99133.94;;;30.06;30.02
13765;BME280;6953;48.810;9.204;2022-08-11T06:09:33;99190.56;;;30.84;28.97
13765;BME280;6953;48.810;9.204;2022-08-11T06:12:07;99174.84;;;31.28;27.84
13765;BME280;6953;48.810;9.204;2022-08-11T06:14:33;99181.81;;;31.78;27.80
13765;BME280;6953;48.810;9.204;2022-08-11T06:17:00;99193.03;;;32.08;26.93
13765;BME280;6953;48.810;9.204;2022-08-11T06:19:39;99169.50;;;32.28;26.81
13765;BME280;6953;48.810;9.204;2022-08-11T06:22:07;99143.59;;;32.39;25.63
13765;BME280;6953;48.810;9.204;2022-08-11T06:24:37;99157.19;;;32.91;24.86
13765;BME280;6953;48.810;9.204;2022-08-11T06:27:03;99180.41;;;33.25;24.29
13765;BME280;6953;48.810;9.204;2022-08-11T06:29:32;99187.34;;;33.28;24.26
13765;BME280;6953;48.810;9.204;2022-08-11T06:32:00;99186.50;;;33.02;24.07
13765;BME280;6953;48.810;9.204;2022-08-11T06:35:16;99198.56;;;33.44;23.65
13765;BME280;6953;48.810;9.204;2022-08-11T06:40:53;99198.75;;;34.25;23.06
13765;BME280;6953;48.810;9.204;2022-08-11T06:43:53;99203.03;;;34.77;21.69
13765;BME280;6953;48.810;9.204;2022-08-11T06:46:28;99209.31;;;35.08;21.52
13765;BME280;6953;48.810;9.204;2022-08-11T06:48:55;99165.81;;;34.58;21.98
13765;BME280;6953;48.810;9.204;2022-08-11T06:51:21;99109.84;;;34.49;21.99
13765;BME280;6953;48.810;9.204;2022-08-11T06:53:52;99123.94;;;34.77;21.61
13765;BME280;6953;48.810;9.204;2022-08-11T06:56:29;99193.97;;;35.49;21.69
13765;BME280;6953;48.810;9.204;2022-08-11T06:59:15;99203.50;;;35.65;20.97
13765;BME280;6953;48.810;9.204;2022-08-11T07:04:39;99208.84;;;36.84;20.44
13765;BME280;6953;48.810;9.204;2022-08-11T07:12:57;99201.53;;;38.15;18.49
13765;BME280;6953;48.810;9.204;2022-08-11T07:15:42;99197.59;;;37.83;18.19
13765;BME280;6953;48.810;9.204;2022-08-11T07:18:24;99186.47;;;37.78;18.29
13765;BME280;6953;48.810;9.204;2022-08-11T07:21:23;99190.03;;;38.02;18.65
13765;BME280;6953;48.810;9.204;2022-08-11T07:24:12;99187.66;;;38.33;18.08
13765;BME280;6953;48.810;9.204;2022-08-11T07:26:58;99130.31;;;37.92;17.93
13765;BME280;6953;48.810;9.204;2022-08-11T07:29:45;99192.63;;;38.64;17.76
13765;BME280;6953;48.810;9.204;2022-08-11T07:32:25;99202.50;;;39.09;17.95
13765;BME280;6953;48.810;9.204;2022-08-11T07:35:05;99170.53;;;39.36;16.97
13765;BME280;6953;48.810;9.204;2022-08-11T07:37:33;99187.53;;;39.33;16.84
13765;BME280;6953;48.810;9.204;2022-08-11T07:40:00;99119.41;;;39.14;16.96
13765;BME280;6953;48.810;9.204;2022-08-11T07:42:31;99145.53;;;39.38;16.79
13765;BME280;6953;48.810;9.204;2022-08-11T07:45:04;99195.41;;;39.46;16.99
13765;BME280;6953;48.810;9.204;2022-08-11T07:47:49;99191.53;;;39.42;17.38
13765;BME280;6953;48.810;9.204;2022-08-11T07:50:34;99172.22;;;39.54;16.54
13765;BME280;6953;48.810;9.204;2022-08-11T07:53:23;99183.09;;;39.86;16.81
13765;BME280;6953;48.810;9.204;2022-08-11T07:55:49;99191.59;;;39.85;16.70
13765;BME280;6953;48.810;9.204;2022-08-11T07:58:15;99189.22;;;40.15;16.38
13765;BME280;6953;48.810;9.204;2022-08-11T08:01:00;99157.66;;;39.96;16.09
13765;BME280;6953;48.810;9.204;2022-08-11T08:03:44;99114.53;;;39.59;16.68
13765;BME280;6953;48.810;9.204;2022-08-11T08:06:31;99184.47;;;39.68;16.66
13765;BME280;6953;48.810;9.204;2022-08-11T08:09:20;99157.25;;;40.09;16.20
13765;BME280;6953;48.810;9.204;2022-08-11T08:12:06;99183.81;;;40.73;15.96
13765;BME280;6953;48.810;9.204;2022-08-11T08:14:51;99135.38;;;40.77;15.65
13765;BME280;6953;48.810;9.204;2022-08-11T08:17:37;99187.47;;;41.87;15.00
13765;BME280;6953;48.810;9.204;2022-08-11T08:20:22;99111.22;;;41.71;14.63
13765;BME280;6953;48.810;9.204;2022-08-11T08:22:55;99187.25;;;42.03;14.48
13765;BME280;6953;48.810;9.204;2022-08-11T08:25:30;99181.34;;;41.80;14.17
13765;BME280;6953;48.810;9.204;2022-08-11T08:27:58;99174.06;;;42.10;14.31
13765;BME280;6953;48.810;9.204;2022-08-11T08:30:27;99171.63;;;42.24;13.98
13765;BME280;6953;48.810;9.204;2022-08-11T08:35:46;99196.31;;;42.60;13.50
13765;BME280;6953;48.810;9.204;2022-08-11T08:38:13;99141.25;;;42.24;13.94
13765;BME280;6953;48.810;9.204;2022-08-11T08:40:41;99099.59;;;42.40;13.77
13765;BME280;6953;48.810;9.204;2022-08-11T08:43:08;99189.16;;;43.24;13.70
13765;BME280;6953;48.810;9.204;2022-08-11T08:45:37;99196.53;;;43.83;12.93
13765;BME280;6953;48.810;9.204;2022-08-11T08:48:08;99191.66;;;43.25;13.24
13765;BME280;6953;48.810;9.204;2022-08-11T08:50:42;99187.44;;;43.73;12.99
13765;BME280;6953;48.810;9.204;2022-08-11T08:53:29;99184.22;;;44.14;12.52
13765;BME280;6953;48.810;9.204;2022-08-11T08:55:59;99181.59;;;43.74;12.45
13765;BME280;6953;48.810;9.204;2022-08-11T08:58:25;99182.56;;;43.15;12.62
13765;BME280;6953;48.810;9.204;2022-08-11T09:00:53;99187.44;;;43.68;12.78
13765;BME280;6953;48.810;9.204;2022-08-11T09:03:20;99192.59;;;43.99;12.24
13765;BME280;6953;48.810;9.204;2022-08-11T09:05:47;99188.53;;;43.77;12.09
13765;BME280;6953;48.810;9.204;2022-08-11T09:08:16;99119.50;;;43.12;12.48
13765;BME280;6953;48.810;9.204;2022-08-11T09:10:45;99105.97;;;42.41;11.89
13765;BME280;6953;48.810;9.204;2022-08-11T09:13:13;99175.81;;;42.46;12.69
13765;BME280;6953;48.810;9.204;2022-08-11T09:15:39;99182.22;;;42.67;13.02
13765;BME280;6953;48.810;9.204;2022-08-11T09:18:05;99183.88;;;43.37;11.88
13765;BME280;6953;48.810;9.204;2022-08-11T09:20:35;99183.59;;;43.49;12.17
13765;BME280;6953;48.810;9.204;2022-08-11T09:23:04;99174.47;;;43.63;12.10
13765;BME280;6953;48.810;9.204;2022-08-11T09:25:55;99193.22;;;44.44;11.43
13765;BME280;6953;48.810;9.204;2022-08-11T09:28:44;99191.09;;;44.27;11.45
13765;BME280;6953;48.810;9.204;2022-08-11T09:31:11;99148.19;;;43.61;11.77
13765;BME280;6953;48.810;9.204;2022-08-11T09:33:38;99196.28;;;43.75;11.78
13765;BME280;6953;48.810;9.204;2022-08-11T09:36:06;99193.16;;;43.96;11.61
13765;BME280;6953;48.810;9.204;2022-08-11T09:38:51;99188.78;;;43.85;11.52
13765;BME280;6953;48.810;9.204;2022-08-11T09:41:35;99192.75;;;43.39;11.93
13765;BME280;6953;48.810;9.204;2022-08-11T09:44:02;98996.53;;;43.05;11.70
13765;BME280;6953;48.810;9.204;2022-08-11T09:46:47;99195.31;;;44.67;11.26
13765;BME280;6953;48.810;9.204;2022-08-11T09:49:14;99184.94;;;45.21;11.05
13765;BME280;6953;48.810;9.204;2022-08-11T09:51:40;99152.19;;;45.23;10.29
13765;BME280;6953;48.810;9.204;2022-08-11T09:54:06;99187.84;;;45.35;10.79
13765;BME280;6953;48.810;9.204;2022-08-11T09:56:32;99162.50;;;45.69;10.53
13765;BME280;6953;48.810;9.204;2022-08-11T09:59:20;99194.75;;;46.12;10.07
13765;BME280;6953;48.810;9.204;2022-08-11T10:01:49;99189.19;;;46.12;9.92
13765;BME280;6953;48.810;9.204;2022-08-11T10:04:21;99166.56;;;45.82;9.51
13765;BME280;6953;48.810;9.204;2022-08-11T10:06:52;99159.00;;;45.36;9.84
13765;BME280;6953;48.810;9.204;2022-08-11T10:09:32;99194.66;;;45.99;10.29
13765;BME280;6953;48.810;9.204;2022-08-11T10:12:00;99127.97;;;45.05;9.68
13765;BME280;6953;48.810;9.204;2022-08-11T10:14:29;99182.97;;;45.22;10.51
13765;BME280;6953;48.810;9.204;2022-08-11T10:17:15;99066.19;;;44.66;10.28
13765;BME280;6953;48.810;9.204;2022-08-11T10:19:42;99073.13;;;44.64;9.84
13765;BME280;6953;48.810;9.204;2022-08-11T10:22:09;99180.06;;;44.65;10.23
13765;BME280;6953;48.810;9.204;2022-08-11T10:24:55;99118.13;;;45.46;9.54
13765;BME280;6953;48.810;9.204;2022-08-11T10:27:41;99180.13;;;46.07;9.53
13765;BME280;6953;48.810;9.204;2022-08-11T10:30:07;99171.06;;;46.20;9.24
13765;BME280;6953;48.810;9.204;2022-08-11T10:32:52;99172.75;;;46.76;9.35
13765;BME280;6953;48.810;9.204;2022-08-11T10:35:36;99178.94;;;47.05;8.86
13765;BME280;6953;48.810;9.204;2022-08-11T10:38:03;99170.31;;;47.06;9.03
13765;BME280;6953;48.810;9.204;2022-08-11T10:40:29;99131.03;;;47.26;8.83
13765;BME280;6953;48.810;9.204;2022-08-11T10:42:57;99164.91;;;46.41;9.50
13765;BME280;6953;48.810;9.204;2022-08-11T10:45:38;99142.00;;;46.31;9.32
13765;BME280;6953;48.810;9.204;2022-08-11T10:48:24;99156.09;;;47.08;9.43
13765;BME280;6953;48.810;9.204;2022-08-11T10:50:51;99099.81;;;47.70;8.97
13765;BME280;6953;48.810;9.204;2022-08-11T10:53:41;99129.81;;;49.27;8.05
13765;BME280;6953;48.810;9.204;2022-08-11T10:56:28;99098.19;;;49.18;7.82
13765;BME280;6953;48.810;9.204;2022-08-11T10:59:13;99151.09;;;49.23;7.73
13765;BME280;6953;48.810;9.204;2022-08-11T11:01:41;99110.09;;;48.80;8.34
13765;BME280;6953;48.810;9.204;2022-08-11T11:04:23;99104.97;;;50.04;7.80
13765;BME280;6953;48.810;9.204;2022-08-11T11:09:40;99140.06;;;49.49;7.77
13765;BME280;6953;48.810;9.204;2022-08-11T11:12:10;99088.47;;;48.86;7.77
13765;BME280;6953;48.810;9.204;2022-08-11T11:14:56;99142.69;;;48.58;7.60
13765;BME280;6953;48.810;9.204;2022-08-11T11:17:48;99139.78;;;48.98;8.09
13765;BME280;6953;48.810;9.204;2022-08-11T11:20:27;99074.06;;;48.13;7.65
13765;BME280;6953;48.810;9.204;2022-08-11T11:22:56;99135.06;;;48.85;7.67
13765;BME280;6953;48.810;9.204;2022-08-11T11:25:31;99127.19;;;48.87;7.61
13765;BME280;6953;48.810;9.204;2022-08-11T11:28:30;99124.81;;;48.37;7.87
13765;BME280;6953;48.810;9.204;2022-08-11T11:36:56;99113.13;;;47.86;8.19
13765;BME280;6953;48.810;9.204;2022-08-11T11:39:24;99087.59;;;47.12;8.25
13765;BME280;6953;48.810;9.204;2022-08-11T11:41:53;99003.72;;;46.09;8.97
13765;BME280;6953;48.810;9.204;2022-08-11T11:44:20;99067.06;;;46.94;8.74
13765;BME280;6953;48.810;9.204;2022-08-11T11:46:48;99009.69;;;46.85;8.31
13765;BME280;6953;48.810;9.204;2022-08-11T11:49:16;99098.56;;;48.02;7.71
13765;BME280;6953;48.810;9.204;2022-08-11T11:51:43;99037.38;;;48.33;7.83
13765;BME280;6953;48.810;9.204;2022-08-11T11:54:13;99103.31;;;49.25;7.46
13765;BME280;6953;48.810;9.204;2022-08-11T11:56:39;99085.59;;;50.15;7.33
13765;BME280;6953;48.810;9.204;2022-08-11T11:59:06;99080.94;;;51.13;6.48
13765;BME280;6953;48.810;9.204;2022-08-11T12:01:55;99098.13;;;51.40;6.52
13765;BME280;6953;48.810;9.204;2022-08-11T12:04:21;99093.16;;;50.83;6.33
13765;BME280;6953;48.810;9.204;2022-08-11T12:06:48;99031.53;;;49.08;6.93
13765;BME280;6953;48.810;9.204;2022-08-11T12:09:14;99016.09;;;48.81;7.23
13765;BME280;6953;48.810;9.204;2022-08-11T12:11:43;99077.31;;;49.38;7.19
13765;BME280;6953;48.810;9.204;2022-08-11T12:14:27;99078.72;;;49.66;6.83
13765;BME280;6953;48.810;9.204;2022-08-11T12:16:54;99083.28;;;49.53;7.16
13765;BME280;6953;48.810;9.204;2022-08-11T12:19:23;98998.75;;;49.78;6.94
13765;BME280;6953;48.810;9.204;2022-08-11T12:21:49;98982.34;;;50.02;6.88
13765;BME280;6953;48.810;9.204;2022-08-11T12:24:35;99074.50;;;49.94;6.60
13765;BME280;6953;48.810;9.204;2022-08-11T12:27:20;99063.28;;;48.69;7.29
13765;BME280;6953;48.810;9.204;2022-08-11T12:29:49;99008.72;;;48.32;7.26
13765;BME280;6953;48.810;9.204;2022-08-11T12:32:15;99030.81;;;48.51;7.19
13765;BME280;6953;48.810;9.204;2022-08-11T12:34:41;99062.38;;;48.60;7.29
13765;BME280;6953;48.810;9.204;2022-08-11T12:37:07;99059.13;;;48.44;7.68
13765;BME280;6953;48.810;9.204;2022-08-11T12:39:40;99010.59;;;47.88;7.57
13765;BME280;6953;48.810;9.204;2022-08-11T12:42:25;99051.09;;;48.65;7.46
13765;BME280;6953;48.810;9.204;2022-08-11T12:45:12;99048.56;;;49.37;7.25
13765;BME280;6953;48.810;9.204;2022-08-11T12:50:41;99048.88;;;48.97;7.05
13765;BME280;6953;48.810;9.204;2022-08-11T12:53:31;99048.22;;;48.56;7.13
13765;BME280;6953;48.810;9.204;2022-08-11T12:56:03;99033.16;;;47.86;7.32
13765;BME280;6953;48.810;9.204;2022-08-11T12:58:48;99035.66;;;48.23;7.09
13765;BME280;6953;48.810;9.204;2022-08-11T13:01:15;99039.28;;;48.59;7.01
13765;BME280;6953;48.810;9.204;2022-08-11T13:04:00;98969.50;;;48.81;6.61
13765;BME280;6953;48.810;9.204;2022-08-11T13:06:44;99024.56;;;47.48;7.60
13765;BME280;6953;48.810;9.204;2022-08-11T13:09:11;98966.59;;;46.24;7.96
13765;BME280;6953;48.810;9.204;2022-08-11T13:11:38;98971.16;;;46.15;8.13
13765;BME280;6953;48.810;9.204;2022-08-11T13:14:25;99015.06;;;47.08;7.82
13765;BME280;6953;48.810;9.204;2022-08-11T13:16:51;98946.53;;;47.12;7.48
13765;BME280;6953;48.810;9.204;2022-08-11T13:19:37;98966.31;;;48.00;7.44
13765;BME280;6953;48.810;9.204;2022-08-11T13:22:05;98937.22;;;48.89;6.82
13765;BME280;6953;48.810;9.204;2022-08-11T13:24:32;98969.56;;;49.28;6.68
13765;BME280;6953;48.810;9.204;2022-08-11T13:27:00;99002.75;;;49.47;6.49
13765;BME280;6953;48.810;9.204;2022-08-11T13:29:27;99000.75;;;49.95;6.28
13765;BME280;6953;48.810;9.204;2022-08-11T13:31:57;99013.06;;;50.10;6.30
13765;BME280;6953;48.810;9.204;2022-08-11T13:34:26;99004.38;;;49.31;6.66
13765;BME280;6953;48.810;9.204;2022-08-11T13:36:54;98999.50;;;47.75;7.00
13765;BME280;6953;48.810;9.204;2022-08-11T13:39:21;99000.16;;;46.41;8.20
13765;BME280;6953;48.810;9.204;2022-08-11T13:41:48;98987.69;;;46.57;8.01
13765;BME280;6953;48.810;9.204;2022-08-11T13:44:15;98967.28;;;46.48;7.77
13765;BME280;6953;48.810;9.204;2022-08-11T13:46:42;98978.63;;;46.33;8.00
13765;BME280;6953;48.810;9.204;2022-08-11T13:49:09;98988.41;;;45.75;8.35
13765;BME280;6953;48.810;9.204;2022-08-11T13:51:37;98936.91;;;45.27;8.51
13765;BME280;6953;48.810;9.204;2022-08-11T13:54:09;98971.91;;;46.02;7.77
13765;BME280;6953;48.810;9.204;2022-08-11T13:56:37;98912.06;;;46.41;7.80
13765;BME280;6953;48.810;9.204;2022-08-11T13:59:04;98978.56;;;47.50;7.27
13765;BME280;6953;48.810;9.204;2022-08-11T14:01:34;98932.75;;;47.21;7.18
13765;BME280;6953;48.810;9.204;2022-08-11T14:04:09;98899.97;;;46.64;7.57
13765;BME280;6953;48.810;9.204;2022-08-11T14:06:37;98887.13;;;46.55;7.48
13765;BME280;6953;48.810;9.204;2022-08-11T14:09:07;98979.16;;;46.35;8.09
13765;BME280;6953;48.810;9.204;2022-08-11T14:11:34;98894.03;;;44.49;8.46
13765;BME280;6953;48.810;9.204;2022-08-11T14:14:22;98908.78;;;43.30;9.64
13765;BME280;6953;48.810;9.204;2022-08-11T14:16:51;98948.25;;;43.94;9.14
13765;BME280;6953;48.810;9.204;2022-08-11T14:19:21;98903.38;;;44.30;8.99
13765;BME280;6953;48.810;9.204;2022-08-11T14:21:49;98895.63;;;44.32;8.77
13765;BME280;6953;48.810;9.204;2022-08-11T14:24:37;98939.81;;;43.70;9.29
13765;BME280;6953;48.810;9.204;2022-08-11T14:27:04;98864.34;;;41.44;10.68
13765;BME280;6953;48.810;9.204;2022-08-11T14:29:31;98896.03;;;40.70;10.74
13765;BME280;6953;48.810;9.204;2022-08-11T14:32:00;98851.66;;;40.57;10.73
13765;BME280;6953;48.810;9.204;2022-08-11T14:34:28;98923.34;;;41.33;11.15
13765;BME280;6953;48.810;9.204;2022-08-11T14:36:59;98923.69;;;40.07;11.18
13765;BME280;6953;48.810;9.204;2022-08-11T14:39:27;98831.84;;;37.96;12.31
13765;BME280;6953;48.810;9.204;2022-08-11T14:41:55;98822.50;;;36.75;13.34
13765;BME280;6953;48.810;9.204;2022-08-11T14:44:44;98894.28;;;36.32;13.55
13765;BME280;6953;48.810;9.204;2022-08-11T14:47:32;98891.38;;;35.81;14.51
13765;BME280;6953;48.810;9.204;2022-08-11T14:49:59;98763.66;;;34.90;15.37
13765;BME280;6953;48.810;9.204;2022-08-11T14:52:27;98814.06;;;34.87;15.01
13765;BME280;6953;48.810;9.204;2022-08-11T14:54:52;98879.13;;;34.72;15.23
13765;BME280;6953;48.810;9.204;2022-08-11T14:57:38;98757.63;;;33.87;15.81
13765;BME280;6953;48.810;9.204;2022-08-11T15:00:07;98792.22;;;34.04;15.73
13765;BME280;6953;48.810;9.204;2022-08-11T15:02:36;98852.13;;;34.46;15.83
13765;BME280;6953;48.810;9.204;2022-08-11T15:05:22;98813.00;;;34.23;15.81
13765;BME280;6953;48.810;9.204;2022-08-11T15:07:49;98750.72;;;33.84;15.74
13765;BME280;6953;48.810;9.204;2022-08-11T15:10:16;98810.19;;;34.29;15.76
13765;BME280;6953;48.810;9.204;2022-08-11T15:12:43;98788.47;;;34.23;15.67
13765;BME280;6953;48.810;9.204;2022-08-11T15:15:10;98836.03;;;34.56;15.35
13765;BME280;6953;48.810;9.204;2022-08-11T15:17:56;98824.78;;;34.35;16.07
13765;BME280;6953;48.810;9.204;2022-08-11T15:20:25;98828.66;;;34.27;15.96
13765;BME280;6953;48.810;9.204;2022-08-11T15:23:10;98834.00;;;33.98;16.11
13765;BME280;6953;48.810;9.204;2022-08-11T15:25:58;98809.75;;;33.90;15.74
13765;BME280;6953;48.810;9.204;2022-08-11T15:28:26;98822.03;;;33.99;15.72
13765;BME280;6953;48.810;9.204;2022-08-11T15:31:13;98832.31;;;33.97;15.85
13765;BME280;6953;48.810;9.204;2022-08-11T15:34:07;98737.19;;;33.35;16.20
13765;BME280;6953;48.810;9.204;2022-08-11T15:36:59;98750.09;;;33.40;16.28
13765;BME280;6953;48.810;9.204;2022-08-11T15:40:18;98813.31;;;33.73;16.09
13765;BME280;6953;48.810;9.204;2022-08-11T15:46:15;98753.66;;;33.16;16.59
13765;BME280;6953;48.810;9.204;2022-08-11T15:48:55;98827.19;;;33.34;16.77
13765;BME280;6953;48.810;9.204;2022-08-11T15:51:50;98806.38;;;33.21;16.78
13765;BME280;6953;48.810;9.204;2022-08-11T15:54:22;98710.94;;;32.61;16.96
13765;BME280;6953;48.810;9.204;2022-08-11T15:56:51;98799.31;;;33.07;16.74
13765;BME280;6953;48.810;9.204;2022-08-11T15:59:19;98709.97;;;32.49;17.30
13765;BME280;6953;48.810;9.204;2022-08-11T16:02:06;98673.72;;;32.31;16.86
13765;BME280;6953;48.810;9.204;2022-08-11T16:04:52;98790.03;;;32.91;17.41
13765;BME280;6953;48.810;9.204;2022-08-11T16:07:22;98785.22;;;32.93;17.39
13765;BME280;6953;48.810;9.204;2022-08-11T16:10:05;98789.84;;;32.92;17.44
13765;BME280;6953;48.810;9.204;2022-08-11T16:12:51;98788.19;;;32.85;17.39
13765;BME280;6953;48.810;9.204;2022-08-11T16:15:50;98705.25;;;32.32;17.75
13765;BME280;6953;48.810;9.204;2022-08-11T16:18:52;98789.72;;;32.74;17.37
13765;BME280;6953;48.810;9.204;2022-08-11T16:21:23;98786.16;;;32.74;17.36
13765;BME280;6953;48.810;9.204;2022-08-11T16:23:54;98717.56;;;32.34;17.83
13765;BME280;6953;48.810;9.204;2022-08-11T16:26:22;98723.44;;;32.31;17.53
13765;BME280;6953;48.810;9.204;2022-08-11T16:28:54;98770.97;;;32.53;18.17
13765;BME280;6953;48.810;9.204;2022-08-11T16:31:21;98785.25;;;32.42;17.65
13765;BME280;6953;48.810;9.204;2022-08-11T16:33:49;98765.44;;;32.35;17.85
13765;BME280;6953;48.810;9.204;2022-08-11T16:36:15;98657.28;;;31.69;17.98
13765;BME280;6953;48.810;9.204;2022-08-11T16:39:02;98740.84;;;32.17;17.92
13765;BME280;6953;48.810;9.204;2022-08-11T16:41:33;98771.53;;;32.31;17.64
13765;BME280;6953;48.810;9.204;2022-08-11T16:44:19;98785.34;;;32.23;17.86
13765;BME280;6953;48.810;9.204;2022-08-11T16:47:05;98635.44;;;31.32;18.03
13765;BME280;6953;48.810;9.204;2022-08-11T16:49:38;98763.28;;;32.00;17.86
13765;BME280;6953;48.810;9.204;2022-08-11T16:52:07;98702.59;;;31.49;18.57
13765;BME280;6953;48.810;9.204;2022-08-11T16:54:37;98770.19;;;31.83;18.43
13765;BME280;6953;48.810;9.204;2022-08-11T16:57:11;98645.50;;;30.92;18.30
13765;BME280;6953;48.810;9.204;2022-08-11T16:59:57;98775.25;;;31.60;18.84
13765;BME280;6953;48.810;9.204;2022-08-11T17:02:31;98737.91;;;31.36;18.79
13765;BME280;6953;48.810;9.204;2022-08-11T17:05:19;98703.06;;;31.07;18.75
13765;BME280;6953;48.810;9.204;2022-08-11T17:08:07;98767.94;;;31.35;18.63